sensor_id;sensor_type;location;lat;lon;timestamp;P1;durP1;ratioP1;P2;durP2;ratioP2
76582;SDS011;65462;52.148;7.940;2022-12-10T00:01:18;27.37;;;14.03;;
76582;SDS011;65462;52.148;7.940;2022-12-10T00:03:44;28.37;;;15.00;;
76582;SDS011;65462;52.148;7.940;2022-12-10T00:06:12;28.40;;;14.10;;
76582;SDS011;65462;52.148;7.940;2022-12-10T00:08:40;32.23;;;15.10;;
76582;SDS011;65462;52.148;7.940;2022-12-10T00:11:06;27.63;;;14.07;;
76582;SDS011;65462;52.148;7.940;2022-12-10T00:13:33;26.90;;;13.97;;
76582;SDS011;65462;52.148;7.940;2022-12-10T00:16:00;27.07;;;13.90;;
76582;SDS011;65462;52.148;7.940;2022-12-10T00:18:27;26.57;;;13.67;;
76582;SDS011;65462;52.148;7.940;2022-12-10T00:20:52;28.47;;;14.03;;
76582;SDS011;65462;52.148;7.940;2022-12-10T00:23:18;26.30;;;13.03;;
76582;SDS011;65462;52.148;7.940;2022-12-10T00:25:43;27.93;;;13.23;;
76582;SDS011;65462;52.148;7.940;2022-12-10T00:28:09;27.47;;;14.20;;
76582;SDS011;65462;52.148;7.940;2022-12-10T00:30:34;24.30;;;13.10;;
76582;SDS011;65462;52.148;7.940;2022-12-10T00:32:59;26.63;;;13.70;;
76582;SDS011;65462;52.148;7.940;2022-12-10T00:35:24;27.87;;;13.73;;
76582;SDS011;65462;52.148;7.940;2022-12-10T00:37:50;26.67;;;12.83;;
76582;SDS011;65462;52.148;7.940;2022-12-10T00:40:15;25.87;;;13.67;;
76582;SDS011;65462;52.148;7.940;2022-12-10T00:42:40;28.63;;;14.23;;
76582;SDS011;65462;52.148;7.940;2022-12-10T00:45:06;27.13;;;13.77;;
76582;SDS011;65462;52.148;7.940;2022-12-10T00:47:31;25.80;;;13.20;;
76582;SDS011;65462;52.148;7.940;2022-12-10T00:49:57;28.87;;;14.07;;
76582;SDS011;65462;52.148;7.940;2022-12-10T00:52:22;28.47;;;13.53;;
76582;SDS011;65462;52.148;7.940;2022-12-10T00:54:47;28.03;;;13.97;;
76582;SDS011;65462;52.148;7.940;2022-12-10T00:57:12;26.70;;;13.80;;
76582;SDS011;65462;52.148;7.940;2022-12-10T00:59:37;26.67;;;13.53;;
76582;SDS011;65462;52.148;7.940;2022-12-10T01:02:03;25.40;;;13.50;;
76582;SDS011;65462;52.148;7.940;2022-12-10T01:04:28;28.43;;;13.13;;
76582;SDS011;65462;52.148;7.940;2022-12-10T01:06:54;27.30;;;13.43;;
76582;SDS011;65462;52.148;7.940;2022-12-10T01:09:21;29.43;;;14.30;;
76582;SDS011;65462;52.148;7.940;2022-12-10T01:11:51;29.80;;;14.87;;
76582;SDS011;65462;52.148;7.940;2022-12-10T01:14:21;30.37;;;15.47;;
76582;SDS011;65462;52.148;7.940;2022-12-10T01:16:49;30.20;;;14.37;;
76582;SDS011;65462;52.148;7.940;2022-12-10T01:19:18;28.10;;;13.97;;
76582;SDS011;65462;52.148;7.940;2022-12-10T01:21:43;28.40;;;14.13;;
76582;SDS011;65462;52.148;7.940;2022-12-10T01:24:08;27.80;;;13.70;;
76582;SDS011;65462;52.148;7.940;2022-12-10T01:26:34;32.20;;;15.03;;
76582;SDS011;65462;52.148;7.940;2022-12-10T01:29:00;30.80;;;14.20;;
76582;SDS011;65462;52.148;7.940;2022-12-10T01:31:27;28.77;;;13.93;;
76582;SDS011;65462;52.148;7.940;2022-12-10T01:33:54;27.20;;;13.90;;
76582;SDS011;65462;52.148;7.940;2022-12-10T01:36:21;27.83;;;14.30;;
76582;SDS011;65462;52.148;7.940;2022-12-10T01:38:54;31.55;;;14.35;;
76582;SDS011;65462;52.148;7.940;2022-12-10T01:41:21;25.23;;;13.07;;
76582;SDS011;65462;52.148;7.940;2022-12-10T01:46:22;31.43;;;13.63;;
76582;SDS011;65462;52.148;7.940;2022-12-10T01:48:59;28.97;;;13.93;;
76582;SDS011;65462;52.148;7.940;2022-12-10T01:51:28;26.50;;;13.33;;
76582;SDS011;65462;52.148;7.940;2022-12-10T01:53:55;34.13;;;14.60;;
76582;SDS011;65462;52.148;7.940;2022-12-10T01:56:20;29.33;;;15.00;;
76582;SDS011;65462;52.148;7.940;2022-12-10T01:58:47;27.90;;;14.77;;
76582;SDS011;65462;52.148;7.940;2022-12-10T02:06:58;26.47;;;13.57;;
76582;SDS011;65462;52.148;7.940;2022-12-10T02:12:17;28.93;;;13.33;;
76582;SDS011;65462;52.148;7.940;2022-12-10T02:14:55;26.93;;;14.30;;
76582;SDS011;65462;52.148;7.940;2022-12-10T02:17:36;27.50;;;13.73;;
76582;SDS011;65462;52.148;7.940;2022-12-10T02:20:07;30.87;;;14.30;;
76582;SDS011;65462;52.148;7.940;2022-12-10T02:22:48;28.80;;;14.97;;
76582;SDS011;65462;52.148;7.940;2022-12-10T02:25:19;29.73;;;14.53;;
76582;SDS011;65462;52.148;7.940;2022-12-10T02:27:49;30.50;;;14.17;;
76582;SDS011;65462;52.148;7.940;2022-12-10T02:30:17;30.33;;;15.63;;
76582;SDS011;65462;52.148;7.940;2022-12-10T02:32:42;31.23;;;15.90;;
76582;SDS011;65462;52.148;7.940;2022-12-10T02:35:14;29.10;;;15.70;;
76582;SDS011;65462;52.148;7.940;2022-12-10T02:37:45;29.77;;;15.57;;
76582;SDS011;65462;52.148;7.940;2022-12-10T02:40:16;29.47;;;14.07;;
76582;SDS011;65462;52.148;7.940;2022-12-10T02:42:45;30.03;;;15.90;;
76582;SDS011;65462;52.148;7.940;2022-12-10T02:45:14;32.30;;;17.00;;
76582;SDS011;65462;52.148;7.940;2022-12-10T02:47:40;32.40;;;16.13;;
76582;SDS011;65462;52.148;7.940;2022-12-10T02:50:06;30.77;;;16.03;;
76582;SDS011;65462;52.148;7.940;2022-12-10T02:52:34;31.10;;;16.07;;
76582;SDS011;65462;52.148;7.940;2022-12-10T02:54:59;35.60;;;16.43;;
76582;SDS011;65462;52.148;7.940;2022-12-10T03:00:16;31.33;;;15.93;;
76582;SDS011;65462;52.148;7.940;2022-12-10T03:02:48;30.67;;;15.30;;
76582;SDS011;65462;52.148;7.940;2022-12-10T03:05:39;31.43;;;15.70;;
76582;SDS011;65462;52.148;7.940;2022-12-10T03:08:31;33.80;;;16.42;;
76582;SDS011;65462;52.148;7.940;2022-12-10T03:11:13;31.70;;;15.47;;
76582;SDS011;65462;52.148;7.940;2022-12-10T03:16:18;32.30;;;16.53;;
76582;SDS011;65462;52.148;7.940;2022-12-10T03:18:46;32.83;;;15.70;;
76582;SDS011;65462;52.148;7.940;2022-12-10T03:21:14;30.80;;;15.70;;
76582;SDS011;65462;52.148;7.940;2022-12-10T03:23:41;35.63;;;17.47;;
76582;SDS011;65462;52.148;7.940;2022-12-10T03:26:10;33.90;;;16.13;;
76582;SDS011;65462;52.148;7.940;2022-12-10T03:28:41;31.63;;;16.30;;
76582;SDS011;65462;52.148;7.940;2022-12-10T03:33:37;29.27;;;15.10;;
76582;SDS011;65462;52.148;7.940;2022-12-10T03:36:04;30.60;;;15.77;;
76582;SDS011;65462;52.148;7.940;2022-12-10T03:38:31;30.93;;;16.33;;
76582;SDS011;65462;52.148;7.940;2022-12-10T03:40:57;33.40;;;17.07;;
76582;SDS011;65462;52.148;7.940;2022-12-10T03:43:22;32.73;;;16.83;;
76582;SDS011;65462;52.148;7.940;2022-12-10T03:45:47;33.20;;;16.47;;
76582;SDS011;65462;52.148;7.940;2022-12-10T03:48:12;31.13;;;16.33;;
76582;SDS011;65462;52.148;7.940;2022-12-10T03:50:38;30.77;;;15.57;;
76582;SDS011;65462;52.148;7.940;2022-12-10T03:53:03;32.63;;;16.13;;
76582;SDS011;65462;52.148;7.940;2022-12-10T03:55:28;32.83;;;16.40;;
76582;SDS011;65462;52.148;7.940;2022-12-10T03:57:54;32.70;;;16.63;;
76582;SDS011;65462;52.148;7.940;2022-12-10T04:00:19;32.07;;;17.17;;
76582;SDS011;65462;52.148;7.940;2022-12-10T04:02:44;31.87;;;15.47;;
76582;SDS011;65462;52.148;7.940;2022-12-10T04:05:10;35.33;;;17.27;;
76582;SDS011;65462;52.148;7.940;2022-12-10T04:07:35;32.83;;;16.73;;
76582;SDS011;65462;52.148;7.940;2022-12-10T04:10:00;31.57;;;15.93;;
76582;SDS011;65462;52.148;7.940;2022-12-10T04:12:26;36.60;;;16.70;;
76582;SDS011;65462;52.148;7.940;2022-12-10T04:14:51;34.23;;;16.87;;
76582;SDS011;65462;52.148;7.940;2022-12-10T04:17:35;30.77;;;16.53;;
76582;SDS011;65462;52.148;7.940;2022-12-10T04:20:00;34.90;;;17.57;;
76582;SDS011;65462;52.148;7.940;2022-12-10T04:22:25;33.33;;;16.30;;
76582;SDS011;65462;52.148;7.940;2022-12-10T04:25:12;32.65;;;17.65;;
76582;SDS011;65462;52.148;7.940;2022-12-10T04:27:56;31.23;;;17.93;;
76582;SDS011;65462;52.148;7.940;2022-12-10T04:30:22;34.93;;;17.60;;
76582;SDS011;65462;52.148;7.940;2022-12-10T04:32:47;31.80;;;16.57;;
76582;SDS011;65462;52.148;7.940;2022-12-10T04:35:13;32.97;;;17.43;;
76582;SDS011;65462;52.148;7.940;2022-12-10T04:37:38;32.10;;;16.53;;
76582;SDS011;65462;52.148;7.940;2022-12-10T04:40:04;33.13;;;17.83;;
76582;SDS011;65462;52.148;7.940;2022-12-10T04:42:30;32.80;;;17.03;;
76582;SDS011;65462;52.148;7.940;2022-12-10T04:44:55;33.03;;;17.77;;
76582;SDS011;65462;52.148;7.940;2022-12-10T04:47:20;36.93;;;19.20;;
76582;SDS011;65462;52.148;7.940;2022-12-10T04:49:45;35.87;;;17.70;;
76582;SDS011;65462;52.148;7.940;2022-12-10T04:52:12;32.43;;;17.73;;
76582;SDS011;65462;52.148;7.940;2022-12-10T04:54:39;31.77;;;16.97;;
76582;SDS011;65462;52.148;7.940;2022-12-10T04:57:05;32.40;;;16.67;;
76582;SDS011;65462;52.148;7.940;2022-12-10T04:59:31;31.53;;;16.53;;
76582;SDS011;65462;52.148;7.940;2022-12-10T05:01:56;35.17;;;18.33;;
76582;SDS011;65462;52.148;7.940;2022-12-10T05:04:21;35.87;;;18.57;;
76582;SDS011;65462;52.148;7.940;2022-12-10T05:06:50;33.53;;;17.93;;
76582;SDS011;65462;52.148;7.940;2022-12-10T05:09:15;34.90;;;18.00;;
76582;SDS011;65462;52.148;7.940;2022-12-10T05:11:41;31.53;;;17.57;;
76582;SDS011;65462;52.148;7.940;2022-12-10T05:14:09;33.40;;;17.23;;
76582;SDS011;65462;52.148;7.940;2022-12-10T05:16:36;35.13;;;19.10;;
76582;SDS011;65462;52.148;7.940;2022-12-10T05:19:01;35.73;;;18.20;;
76582;SDS011;65462;52.148;7.940;2022-12-10T05:21:27;31.73;;;17.70;;
76582;SDS011;65462;52.148;7.940;2022-12-10T05:24:12;31.00;;;16.47;;
76582;SDS011;65462;52.148;7.940;2022-12-10T05:26:38;34.20;;;17.93;;
76582;SDS011;65462;52.148;7.940;2022-12-10T05:29:04;35.53;;;18.10;;
76582;SDS011;65462;52.148;7.940;2022-12-10T05:31:30;34.97;;;17.27;;
76582;SDS011;65462;52.148;7.940;2022-12-10T05:33:56;33.53;;;17.83;;
76582;SDS011;65462;52.148;7.940;2022-12-10T05:36:23;32.50;;;17.07;;
76582;SDS011;65462;52.148;7.940;2022-12-10T05:38:50;34.37;;;18.17;;
76582;SDS011;65462;52.148;7.940;2022-12-10T05:41:18;32.57;;;17.33;;
76582;SDS011;65462;52.148;7.940;2022-12-10T05:43:44;37.27;;;18.47;;
76582;SDS011;65462;52.148;7.940;2022-12-10T05:46:12;33.93;;;17.80;;
76582;SDS011;65462;52.148;7.940;2022-12-10T05:48:39;32.73;;;16.93;;
76582;SDS011;65462;52.148;7.940;2022-12-10T05:51:08;33.90;;;19.17;;
76582;SDS011;65462;52.148;7.940;2022-12-10T05:53:35;32.43;;;17.30;;
76582;SDS011;65462;52.148;7.940;2022-12-10T05:56:02;33.00;;;17.73;;
76582;SDS011;65462;52.148;7.940;2022-12-10T05:58:29;35.27;;;17.90;;
76582;SDS011;65462;52.148;7.940;2022-12-10T06:00:55;32.13;;;17.77;;
76582;SDS011;65462;52.148;7.940;2022-12-10T06:03:24;34.47;;;17.87;;
76582;SDS011;65462;52.148;7.940;2022-12-10T06:05:52;34.90;;;17.53;;
76582;SDS011;65462;52.148;7.940;2022-12-10T06:08:18;32.23;;;16.60;;
76582;SDS011;65462;52.148;7.940;2022-12-10T06:10:43;31.83;;;16.77;;
76582;SDS011;65462;52.148;7.940;2022-12-10T06:13:09;33.47;;;18.37;;
76582;SDS011;65462;52.148;7.940;2022-12-10T06:15:34;30.17;;;16.13;;
76582;SDS011;65462;52.148;7.940;2022-12-10T06:17:59;33.30;;;17.67;;
76582;SDS011;65462;52.148;7.940;2022-12-10T06:20:25;32.77;;;18.67;;
76582;SDS011;65462;52.148;7.940;2022-12-10T06:22:51;34.67;;;18.77;;
76582;SDS011;65462;52.148;7.940;2022-12-10T06:25:16;32.03;;;17.27;;
76582;SDS011;65462;52.148;7.940;2022-12-10T06:27:42;34.07;;;19.07;;
76582;SDS011;65462;52.148;7.940;2022-12-10T06:30:08;35.70;;;18.50;;
76582;SDS011;65462;52.148;7.940;2022-12-10T06:32:34;32.00;;;16.63;;
76582;SDS011;65462;52.148;7.940;2022-12-10T06:34:59;38.10;;;18.53;;
76582;SDS011;65462;52.148;7.940;2022-12-10T06:37:24;35.93;;;17.50;;
76582;SDS011;65462;52.148;7.940;2022-12-10T06:39:50;33.93;;;17.97;;
76582;SDS011;65462;52.148;7.940;2022-12-10T06:42:17;34.47;;;18.00;;
76582;SDS011;65462;52.148;7.940;2022-12-10T06:44:42;33.87;;;17.73;;
76582;SDS011;65462;52.148;7.940;2022-12-10T06:47:07;29.93;;;16.50;;
76582;SDS011;65462;52.148;7.940;2022-12-10T06:49:33;32.87;;;18.10;;
76582;SDS011;65462;52.148;7.940;2022-12-10T06:51:58;33.07;;;17.83;;
76582;SDS011;65462;52.148;7.940;2022-12-10T06:54:29;31.60;;;17.47;;
76582;SDS011;65462;52.148;7.940;2022-12-10T06:56:55;35.57;;;18.20;;
76582;SDS011;65462;52.148;7.940;2022-12-10T06:59:20;34.17;;;18.47;;
76582;SDS011;65462;52.148;7.940;2022-12-10T07:01:45;30.70;;;17.47;;
76582;SDS011;65462;52.148;7.940;2022-12-10T07:04:11;36.37;;;17.07;;
76582;SDS011;65462;52.148;7.940;2022-12-10T07:06:36;34.00;;;17.83;;
76582;SDS011;65462;52.148;7.940;2022-12-10T07:09:01;31.23;;;17.33;;
76582;SDS011;65462;52.148;7.940;2022-12-10T07:11:27;32.27;;;17.43;;
76582;SDS011;65462;52.148;7.940;2022-12-10T07:13:52;32.00;;;17.63;;
76582;SDS011;65462;52.148;7.940;2022-12-10T07:16:19;33.40;;;18.03;;
76582;SDS011;65462;52.148;7.940;2022-12-10T07:18:47;31.33;;;17.00;;
76582;SDS011;65462;52.148;7.940;2022-12-10T07:21:16;31.80;;;17.10;;
76582;SDS011;65462;52.148;7.940;2022-12-10T07:23:44;36.03;;;18.77;;
76582;SDS011;65462;52.148;7.940;2022-12-10T07:26:09;34.67;;;16.70;;
76582;SDS011;65462;52.148;7.940;2022-12-10T07:28:35;34.73;;;17.93;;
76582;SDS011;65462;52.148;7.940;2022-12-10T07:31:04;35.97;;;18.87;;
76582;SDS011;65462;52.148;7.940;2022-12-10T07:33:30;37.47;;;18.73;;
76582;SDS011;65462;52.148;7.940;2022-12-10T07:35:55;33.77;;;17.60;;
76582;SDS011;65462;52.148;7.940;2022-12-10T07:38:21;33.60;;;17.63;;
76582;SDS011;65462;52.148;7.940;2022-12-10T07:40:47;32.63;;;17.63;;
76582;SDS011;65462;52.148;7.940;2022-12-10T07:43:12;35.97;;;18.90;;
76582;SDS011;65462;52.148;7.940;2022-12-10T07:45:38;38.23;;;18.57;;
76582;SDS011;65462;52.148;7.940;2022-12-10T07:48:03;34.43;;;19.00;;
76582;SDS011;65462;52.148;7.940;2022-12-10T07:50:28;35.00;;;18.60;;
76582;SDS011;65462;52.148;7.940;2022-12-10T07:52:54;37.60;;;20.07;;
76582;SDS011;65462;52.148;7.940;2022-12-10T07:55:19;31.23;;;18.20;;
76582;SDS011;65462;52.148;7.940;2022-12-10T07:57:44;36.33;;;19.50;;
76582;SDS011;65462;52.148;7.940;2022-12-10T08:00:09;35.10;;;18.77;;
76582;SDS011;65462;52.148;7.940;2022-12-10T08:02:35;31.47;;;17.37;;
76582;SDS011;65462;52.148;7.940;2022-12-10T08:05:00;33.73;;;18.30;;
76582;SDS011;65462;52.148;7.940;2022-12-10T08:07:26;32.63;;;18.03;;
76582;SDS011;65462;52.148;7.940;2022-12-10T08:09:51;33.97;;;17.60;;
76582;SDS011;65462;52.148;7.940;2022-12-10T08:12:16;35.83;;;18.70;;
76582;SDS011;65462;52.148;7.940;2022-12-10T08:14:42;35.57;;;18.20;;
76582;SDS011;65462;52.148;7.940;2022-12-10T08:17:07;34.50;;;18.03;;
76582;SDS011;65462;52.148;7.940;2022-12-10T08:19:32;36.03;;;18.63;;
76582;SDS011;65462;52.148;7.940;2022-12-10T08:21:57;34.90;;;17.60;;
76582;SDS011;65462;52.148;7.940;2022-12-10T08:24:23;37.33;;;19.67;;
76582;SDS011;65462;52.148;7.940;2022-12-10T08:26:48;35.60;;;18.43;;
76582;SDS011;65462;52.148;7.940;2022-12-10T08:29:13;32.00;;;18.03;;
76582;SDS011;65462;52.148;7.940;2022-12-10T08:31:38;35.90;;;18.87;;
76582;SDS011;65462;52.148;7.940;2022-12-10T08:34:04;35.00;;;18.60;;
76582;SDS011;65462;52.148;7.940;2022-12-10T08:36:35;38.73;;;19.43;;
76582;SDS011;65462;52.148;7.940;2022-12-10T08:39:00;32.97;;;17.20;;
76582;SDS011;65462;52.148;7.940;2022-12-10T08:41:25;34.10;;;17.60;;
76582;SDS011;65462;52.148;7.940;2022-12-10T08:43:51;30.70;;;17.57;;
76582;SDS011;65462;52.148;7.940;2022-12-10T08:46:18;34.47;;;18.07;;
76582;SDS011;65462;52.148;7.940;2022-12-10T08:48:43;33.03;;;18.73;;
76582;SDS011;65462;52.148;7.940;2022-12-10T08:51:10;37.70;;;19.57;;
76582;SDS011;65462;52.148;7.940;2022-12-10T08:53:36;36.17;;;19.43;;
76582;SDS011;65462;52.148;7.940;2022-12-10T08:56:01;35.13;;;18.67;;
76582;SDS011;65462;52.148;7.940;2022-12-10T08:58:27;33.17;;;18.03;;
76582;SDS011;65462;52.148;7.940;2022-12-10T09:00:52;35.20;;;19.37;;
76582;SDS011;65462;52.148;7.940;2022-12-10T09:03:17;34.60;;;18.20;;
76582;SDS011;65462;52.148;7.940;2022-12-10T09:05:43;36.37;;;19.00;;
76582;SDS011;65462;52.148;7.940;2022-12-10T09:08:09;35.43;;;18.97;;
76582;SDS011;65462;52.148;7.940;2022-12-10T09:10:36;35.67;;;18.13;;
76582;SDS011;65462;52.148;7.940;2022-12-10T09:13:02;37.63;;;20.47;;
76582;SDS011;65462;52.148;7.940;2022-12-10T09:15:27;39.47;;;20.37;;
76582;SDS011;65462;52.148;7.940;2022-12-10T09:17:53;37.37;;;19.53;;
76582;SDS011;65462;52.148;7.940;2022-12-10T09:20:18;35.63;;;18.60;;
76582;SDS011;65462;52.148;7.940;2022-12-10T09:22:43;37.13;;;18.33;;
76582;SDS011;65462;52.148;7.940;2022-12-10T09:25:08;38.23;;;20.40;;
76582;SDS011;65462;52.148;7.940;2022-12-10T09:27:40;40.10;;;20.07;;
76582;SDS011;65462;52.148;7.940;2022-12-10T09:30:05;41.93;;;21.37;;
76582;SDS011;65462;52.148;7.940;2022-12-10T09:32:31;41.40;;;21.33;;
76582;SDS011;65462;52.148;7.940;2022-12-10T09:34:56;36.73;;;19.97;;
76582;SDS011;65462;52.148;7.940;2022-12-10T09:37:22;39.87;;;19.77;;
76582;SDS011;65462;52.148;7.940;2022-12-10T09:39:47;38.03;;;19.23;;
76582;SDS011;65462;52.148;7.940;2022-12-10T09:44:53;43.10;;;20.67;;
76582;SDS011;65462;52.148;7.940;2022-12-10T09:50:37;42.03;;;19.50;;
76582;SDS011;65462;52.148;7.940;2022-12-10T09:53:26;38.67;;;20.00;;
76582;SDS011;65462;52.148;7.940;2022-12-10T09:55:53;38.63;;;20.43;;
76582;SDS011;65462;52.148;7.940;2022-12-10T09:58:19;40.20;;;21.37;;
76582;SDS011;65462;52.148;7.940;2022-12-10T10:00:47;39.20;;;20.10;;
76582;SDS011;65462;52.148;7.940;2022-12-10T10:03:16;37.47;;;19.67;;
76582;SDS011;65462;52.148;7.940;2022-12-10T10:05:43;39.67;;;20.60;;
76582;SDS011;65462;52.148;7.940;2022-12-10T10:08:17;39.90;;;21.13;;
76582;SDS011;65462;52.148;7.940;2022-12-10T10:10:49;40.37;;;21.00;;
76582;SDS011;65462;52.148;7.940;2022-12-10T10:13:20;36.47;;;19.20;;
76582;SDS011;65462;52.148;7.940;2022-12-10T10:15:54;39.70;;;20.67;;
76582;SDS011;65462;52.148;7.940;2022-12-10T10:18:31;44.87;;;21.27;;
76582;SDS011;65462;52.148;7.940;2022-12-10T10:20:57;39.87;;;20.03;;
76582;SDS011;65462;52.148;7.940;2022-12-10T10:23:24;39.03;;;20.43;;
76582;SDS011;65462;52.148;7.940;2022-12-10T10:25:49;39.70;;;21.13;;
76582;SDS011;65462;52.148;7.940;2022-12-10T10:28:19;39.00;;;21.27;;
76582;SDS011;65462;52.148;7.940;2022-12-10T10:30:46;38.27;;;20.23;;
76582;SDS011;65462;52.148;7.940;2022-12-10T10:33:13;36.30;;;19.43;;
76582;SDS011;65462;52.148;7.940;2022-12-10T10:35:49;40.07;;;21.07;;
76582;SDS011;65462;52.148;7.940;2022-12-10T10:38:20;37.77;;;19.77;;
76582;SDS011;65462;52.148;7.940;2022-12-10T10:40:55;37.03;;;19.53;;
76582;SDS011;65462;52.148;7.940;2022-12-10T10:43:26;42.67;;;21.33;;
76582;SDS011;65462;52.148;7.940;2022-12-10T10:46:06;42.80;;;21.33;;
76582;SDS011;65462;52.148;7.940;2022-12-10T10:48:36;40.57;;;20.23;;
76582;SDS011;65462;52.148;7.940;2022-12-10T10:51:15;39.23;;;19.73;;
76582;SDS011;65462;52.148;7.940;2022-12-10T10:53:53;36.80;;;19.53;;
76582;SDS011;65462;52.148;7.940;2022-12-10T10:56:27;40.35;;;20.90;;
76582;SDS011;65462;52.148;7.940;2022-12-10T10:59:03;36.83;;;19.80;;
76582;SDS011;65462;52.148;7.940;2022-12-10T11:01:47;37.30;;;19.63;;
76582;SDS011;65462;52.148;7.940;2022-12-10T11:04:19;35.87;;;20.00;;
76582;SDS011;65462;52.148;7.940;2022-12-10T11:07:02;36.73;;;19.83;;
76582;SDS011;65462;52.148;7.940;2022-12-10T11:09:30;35.90;;;19.73;;
76582;SDS011;65462;52.148;7.940;2022-12-10T11:11:59;36.53;;;19.50;;
76582;SDS011;65462;52.148;7.940;2022-12-10T11:14:44;34.47;;;18.17;;
76582;SDS011;65462;52.148;7.940;2022-12-10T11:19:41;33.80;;;18.33;;
76582;SDS011;65462;52.148;7.940;2022-12-10T11:22:19;32.63;;;17.50;;
76582;SDS011;65462;52.148;7.940;2022-12-10T11:24:47;31.40;;;18.53;;
76582;SDS011;65462;52.148;7.940;2022-12-10T11:30:02;34.43;;;19.20;;
76582;SDS011;65462;52.148;7.940;2022-12-10T11:32:49;34.57;;;19.80;;
76582;SDS011;65462;52.148;7.940;2022-12-10T11:38:44;32.47;;;17.77;;
76582;SDS011;65462;52.148;7.940;2022-12-10T11:41:23;33.10;;;18.73;;
76582;SDS011;65462;52.148;7.940;2022-12-10T11:47:19;34.30;;;19.67;;
76582;SDS011;65462;52.148;7.940;2022-12-10T12:11:03;32.60;;;18.33;;
76582;SDS011;65462;52.148;7.940;2022-12-10T12:16:40;31.37;;;17.83;;
76582;SDS011;65462;52.148;7.940;2022-12-10T12:19:12;31.85;;;18.58;;
76582;SDS011;65462;52.148;7.940;2022-12-10T12:21:41;32.73;;;18.60;;
76582;SDS011;65462;52.148;7.940;2022-12-10T12:24:12;31.97;;;18.07;;
76582;SDS011;65462;52.148;7.940;2022-12-10T12:26:46;32.83;;;18.17;;
76582;SDS011;65462;52.148;7.940;2022-12-10T12:32:10;30.77;;;17.53;;
76582;SDS011;65462;52.148;7.940;2022-12-10T12:34:45;31.43;;;17.47;;
76582;SDS011;65462;52.148;7.940;2022-12-10T12:37:16;26.38;;;14.35;;
76582;SDS011;65462;52.148;7.940;2022-12-10T12:42:25;33.43;;;17.80;;
76582;SDS011;65462;52.148;7.940;2022-12-10T12:45:02;31.37;;;18.13;;
76582;SDS011;65462;52.148;7.940;2022-12-10T12:49:53;32.67;;;18.47;;
76582;SDS011;65462;52.148;7.940;2022-12-10T12:55:03;34.63;;;19.03;;
76582;SDS011;65462;52.148;7.940;2022-12-10T12:57:48;32.57;;;18.10;;
76582;SDS011;65462;52.148;7.940;2022-12-10T13:00:18;37.53;;;19.60;;
76582;SDS011;65462;52.148;7.940;2022-12-10T13:05:41;36.10;;;20.13;;
76582;SDS011;65462;52.148;7.940;2022-12-10T13:10:45;37.37;;;18.37;;
76582;SDS011;65462;52.148;7.940;2022-12-10T13:15:53;36.13;;;18.63;;
76582;SDS011;65462;52.148;7.940;2022-12-10T13:23:30;35.77;;;18.77;;
76582;SDS011;65462;52.148;7.940;2022-12-10T13:25:58;40.40;;;20.03;;
76582;SDS011;65462;52.148;7.940;2022-12-10T13:36:14;35.57;;;19.17;;
76582;SDS011;65462;52.148;7.940;2022-12-10T13:41:27;35.30;;;19.33;;
76582;SDS011;65462;52.148;7.940;2022-12-10T13:52:19;35.63;;;18.43;;
76582;SDS011;65462;52.148;7.940;2022-12-10T14:00:20;41.20;;;20.40;;
76582;SDS011;65462;52.148;7.940;2022-12-10T14:07:48;40.20;;;21.53;;
76582;SDS011;65462;52.148;7.940;2022-12-10T14:10:18;40.83;;;20.93;;
76582;SDS011;65462;52.148;7.940;2022-12-10T14:12:46;38.37;;;21.13;;
76582;SDS011;65462;52.148;7.940;2022-12-10T14:15:20;43.27;;;21.70;;
76582;SDS011;65462;52.148;7.940;2022-12-10T14:17:48;42.23;;;21.47;;
76582;SDS011;65462;52.148;7.940;2022-12-10T14:20:16;42.93;;;21.87;;
76582;SDS011;65462;52.148;7.940;2022-12-10T14:22:45;45.33;;;21.87;;
76582;SDS011;65462;52.148;7.940;2022-12-10T14:25:14;44.70;;;22.27;;
76582;SDS011;65462;52.148;7.940;2022-12-10T14:27:40;43.70;;;22.60;;
76582;SDS011;65462;52.148;7.940;2022-12-10T14:30:14;41.30;;;21.97;;
76582;SDS011;65462;52.148;7.940;2022-12-10T14:32:42;43.63;;;22.20;;
76582;SDS011;65462;52.148;7.940;2022-12-10T14:35:24;45.23;;;22.93;;
76582;SDS011;65462;52.148;7.940;2022-12-10T14:37:52;44.53;;;22.67;;
76582;SDS011;65462;52.148;7.940;2022-12-10T14:42:56;43.20;;;22.67;;
76582;SDS011;65462;52.148;7.940;2022-12-10T14:45:29;43.77;;;22.23;;
76582;SDS011;65462;52.148;7.940;2022-12-10T14:48:03;42.80;;;22.23;;
76582;SDS011;65462;52.148;7.940;2022-12-10T14:50:32;44.33;;;22.33;;
76582;SDS011;65462;52.148;7.940;2022-12-10T14:52:57;44.77;;;22.90;;
76582;SDS011;65462;52.148;7.940;2022-12-10T14:55:22;45.40;;;22.03;;
76582;SDS011;65462;52.148;7.940;2022-12-10T14:57:50;42.30;;;21.77;;
76582;SDS011;65462;52.148;7.940;2022-12-10T15:00:20;47.37;;;24.83;;
76582;SDS011;65462;52.148;7.940;2022-12-10T15:02:53;44.47;;;23.37;;
76582;SDS011;65462;52.148;7.940;2022-12-10T15:05:23;42.67;;;23.27;;
76582;SDS011;65462;52.148;7.940;2022-12-10T15:07:55;41.07;;;21.87;;
76582;SDS011;65462;52.148;7.940;2022-12-10T15:10:23;46.50;;;22.53;;
76582;SDS011;65462;52.148;7.940;2022-12-10T15:12:52;42.67;;;22.53;;
76582;SDS011;65462;52.148;7.940;2022-12-10T15:15:24;43.77;;;22.57;;
76582;SDS011;65462;52.148;7.940;2022-12-10T15:17:55;51.30;;;23.43;;
76582;SDS011;65462;52.148;7.940;2022-12-10T15:20:25;38.60;;;21.03;;
76582;SDS011;65462;52.148;7.940;2022-12-10T15:22:53;42.43;;;22.40;;
76582;SDS011;65462;52.148;7.940;2022-12-10T15:25:23;46.43;;;22.47;;
76582;SDS011;65462;52.148;7.940;2022-12-10T15:30:33;43.37;;;21.37;;
76582;SDS011;65462;52.148;7.940;2022-12-10T15:33:01;43.40;;;21.23;;
76582;SDS011;65462;52.148;7.940;2022-12-10T15:35:26;42.13;;;21.27;;
76582;SDS011;65462;52.148;7.940;2022-12-10T15:37:52;46.93;;;22.57;;
76582;SDS011;65462;52.148;7.940;2022-12-10T15:40:25;42.60;;;21.83;;
76582;SDS011;65462;52.148;7.940;2022-12-10T15:43:22;45.40;;;23.23;;
76582;SDS011;65462;52.148;7.940;2022-12-10T15:48:15;42.73;;;21.63;;
76582;SDS011;65462;52.148;7.940;2022-12-10T15:50:42;40.97;;;21.30;;
76582;SDS011;65462;52.148;7.940;2022-12-10T15:53:12;41.40;;;22.40;;
76582;SDS011;65462;52.148;7.940;2022-12-10T15:55:39;42.20;;;22.27;;
76582;SDS011;65462;52.148;7.940;2022-12-10T15:58:11;46.40;;;22.60;;
76582;SDS011;65462;52.148;7.940;2022-12-10T16:00:38;42.93;;;22.13;;
76582;SDS011;65462;52.148;7.940;2022-12-10T16:03:08;47.93;;;23.23;;
76582;SDS011;65462;52.148;7.940;2022-12-10T16:05:36;45.00;;;23.93;;
76582;SDS011;65462;52.148;7.940;2022-12-10T16:10:39;47.67;;;24.53;;
76582;SDS011;65462;52.148;7.940;2022-12-10T16:13:05;45.93;;;23.53;;
76582;SDS011;65462;52.148;7.940;2022-12-10T16:15:42;50.90;;;25.53;;
76582;SDS011;65462;52.148;7.940;2022-12-10T16:18:11;47.23;;;23.23;;
76582;SDS011;65462;52.148;7.940;2022-12-10T16:20:36;48.63;;;24.13;;
76582;SDS011;65462;52.148;7.940;2022-12-10T16:23:02;53.20;;;25.33;;
76582;SDS011;65462;52.148;7.940;2022-12-10T16:25:30;52.23;;;24.53;;
76582;SDS011;65462;52.148;7.940;2022-12-10T16:27:57;51.80;;;25.07;;
76582;SDS011;65462;52.148;7.940;2022-12-10T16:30:24;51.80;;;24.83;;
76582;SDS011;65462;52.148;7.940;2022-12-10T16:32:54;49.17;;;24.60;;